sensor_id;sensor_type;location;lat;lon;timestamp;pressure;altitude;pressure_sealevel;temperature;humidity
49451;BME280;35336;48.400;10.886;2023-04-24T00:00:03;95313.78;;;10.10;97.47
49451;BME280;35336;48.400;10.886;2023-04-24T00:00:19;95327.63;;;10.18;97.48
49451;BME280;35336;48.400;10.886;2023-04-24T00:00:34;95318.44;;;10.14;97.68
49451;BME280;35336;48.400;10.886;2023-04-24T00:00:50;95331.31;;;10.17;97.74
49451;BME280;35336;48.400;10.886;2023-04-24T00:01:05;95320.97;;;10.09;97.71
49451;BME280;35336;48.400;10.886;2023-04-24T00:01:21;95322.53;;;10.17;97.20
49451;BME280;35336;48.400;10.886;2023-04-24T00:01:36;95317.47;;;10.09;97.60
49451;BME280;35336;48.400;10.886;2023-04-24T00:01:52;95290.59;;;9.92;97.22
49451;BME280;35336;48.400;10.886;2023-04-24T00:02:07;95326.22;;;10.16;97.46
49451;BME280;35336;48.400;10.886;2023-04-24T00:02:23;95327.03;;;10.16;97.60
49451;BME280;35336;48.400;10.886;2023-04-24T00:02:38;95326.44;;;10.14;97.44
49451;BME280;35336;48.400;10.886;2023-04-24T00:02:53;95328.88;;;10.16;97.73
49451;BME280;35336;48.400;10.886;2023-04-24T00:03:09;95329.72;;;10.16;97.51
49451;BME280;35336;48.400;10.886;2023-04-24T00:03:24;95329.09;;;10.14;97.74
49451;BME280;35336;48.400;10.886;2023-04-24T00:03:39;95325.63;;;10.14;97.64
49451;BME280;35336;48.400;10.886;2023-04-24T00:03:55;95309.56;;;10.02;97.98
49451;BME280;35336;48.400;10.886;2023-04-24T00:04:11;95316.28;;;10.05;97.99
49451;BME280;35336;48.400;10.886;2023-04-24T00:04:27;95323.19;;;10.12;98.38
49451;BME280;35336;48.400;10.886;2023-04-24T00:04:42;95320.34;;;10.07;97.81
49451;BME280;35336;48.400;10.886;2023-04-24T00:04:58;95332.41;;;10.10;98.09
49451;BME280;35336;48.400;10.886;2023-04-24T00:05:15;95306.50;;;9.98;97.87
49451;BME280;35336;48.400;10.886;2023-04-24T00:05:30;95314.06;;;10.01;97.59
49451;BME280;35336;48.400;10.886;2023-04-24T00:05:45;95305.41;;;10.06;97.69
49451;BME280;35336;48.400;10.886;2023-04-24T00:06:01;95325.63;;;10.14;97.20
49451;BME280;35336;48.400;10.886;2023-04-24T00:06:16;95306.91;;;10.02;97.50
49451;BME280;35336;48.400;10.886;2023-04-24T00:06:31;95318.72;;;10.06;97.10
49451;BME280;35336;48.400;10.886;2023-04-24T00:06:47;95327.47;;;10.13;97.21
49451;BME280;35336;48.400;10.886;2023-04-24T00:07:02;95326.28;;;10.09;97.17
49451;BME280;35336;48.400;10.886;2023-04-24T00:07:17;95301.00;;;9.93;97.55
49451;BME280;35336;48.400;10.886;2023-04-24T00:07:33;95316.47;;;10.03;97.90
49451;BME280;35336;48.400;10.886;2023-04-24T00:07:49;95325.69;;;10.07;97.23
49451;BME280;35336;48.400;10.886;2023-04-24T00:08:04;95313.25;;;10.01;97.53
49451;BME280;35336;48.400;10.886;2023-04-24T00:08:19;95327.31;;;10.08;97.86
49451;BME280;35336;48.400;10.886;2023-04-24T00:08:35;95319.75;;;10.05;98.32
49451;BME280;35336;48.400;10.886;2023-04-24T00:08:50;95317.53;;;10.02;98.00
49451;BME280;35336;48.400;10.886;2023-04-24T00:09:06;95332.19;;;10.11;97.97
49451;BME280;35336;48.400;10.886;2023-04-24T00:09:21;95323.69;;;10.02;98.13
49451;BME280;35336;48.400;10.886;2023-04-24T00:09:36;95287.38;;;9.83;98.05
49451;BME280;35336;48.400;10.886;2023-04-24T00:09:52;95326.50;;;10.08;97.95
49451;BME280;35336;48.400;10.886;2023-04-24T00:10:08;95327.31;;;10.08;97.92
49451;BME280;35336;48.400;10.886;2023-04-24T00:10:23;95324.84;;;10.07;97.90
49451;BME280;35336;48.400;10.886;2023-04-24T00:10:39;95318.56;;;10.01;97.76
49451;BME280;35336;48.400;10.886;2023-04-24T00:10:54;95334.06;;;10.11;97.82
49451;BME280;35336;48.400;10.886;2023-04-24T00:11:10;95333.44;;;10.09;97.68
49451;BME280;35336;48.400;10.886;2023-04-24T00:11:26;95329.00;;;10.02;97.72
49451;BME280;35336;48.400;10.886;2023-04-24T00:11:41;95337.97;;;10.08;97.73
49451;BME280;35336;48.400;10.886;2023-04-24T00:11:56;95336.34;;;10.07;97.85
49451;BME280;35336;48.400;10.886;2023-04-24T00:12:12;95322.25;;;10.00;97.84
49451;BME280;35336;48.400;10.886;2023-04-24T00:12:27;95334.69;;;10.06;97.87
49451;BME280;35336;48.400;10.886;2023-04-24T00:12:43;95340.63;;;10.08;98.11
49451;BME280;35336;48.400;10.886;2023-04-24T00:12:58;95318.19;;;9.97;98.17
49451;BME280;35336;48.400;10.886;2023-04-24T00:13:13;95337.97;;;10.08;98.16
49451;BME280;35336;48.400;10.886;2023-04-24T00:13:29;95328.63;;;9.99;98.32
49451;BME280;35336;48.400;10.886;2023-04-24T00:13:44;95299.25;;;9.80;97.94
49451;BME280;35336;48.400;10.886;2023-04-24T00:13:59;95324.31;;;9.98;97.81
49451;BME280;35336;48.400;10.886;2023-04-24T00:14:15;95324.16;;;9.93;97.52
49451;BME280;35336;48.400;10.886;2023-04-24T00:14:31;95322.31;;;9.93;97.14
49451;BME280;35336;48.400;10.886;2023-04-24T00:14:47;95337.78;;;10.03;97.52
49451;BME280;35336;48.400;10.886;2023-04-24T00:15:02;95331.28;;;9.99;97.43
49451;BME280;35336;48.400;10.886;2023-04-24T00:15:18;95336.19;;;10.02;97.29
49451;BME280;35336;48.400;10.886;2023-04-24T00:15:33;95298.88;;;9.77;97.47
49451;BME280;35336;48.400;10.886;2023-04-24T00:15:48;95328.88;;;9.91;97.31
49451;BME280;35336;48.400;10.886;2023-04-24T00:16:04;95338.66;;;9.97;97.71
49451;BME280;35336;48.400;10.886;2023-04-24T00:16:19;95328.28;;;9.89;97.67
49451;BME280;35336;48.400;10.886;2023-04-24T00:16:35;95325.84;;;9.87;98.02
49451;BME280;35336;48.400;10.886;2023-04-24T00:16:50;95342.97;;;9.98;97.66
49451;BME280;35336;48.400;10.886;2023-04-24T00:17:05;95329.31;;;9.88;97.66
49451;BME280;35336;48.400;10.886;2023-04-24T00:17:21;95347.09;;;9.94;97.44
49451;BME280;35336;48.400;10.886;2023-04-24T00:17:36;95326.66;;;9.88;97.41
49451;BME280;35336;48.400;10.886;2023-04-24T00:17:52;95333.59;;;9.89;97.73
49451;BME280;35336;48.400;10.886;2023-04-24T00:18:07;95342.97;;;9.98;97.42
49451;BME280;35336;48.400;10.886;2023-04-24T00:18:22;95335.25;;;9.90;97.80
49451;BME280;35336;48.400;10.886;2023-04-24T00:18:38;95330.94;;;9.89;97.81
49451;BME280;35336;48.400;10.886;2023-04-24T00:18:53;95349.69;;;10.00;98.21
49451;BME280;35336;48.400;10.886;2023-04-24T00:19:09;95348.28;;;9.98;97.73
49451;BME280;35336;48.400;10.886;2023-04-24T00:19:24;95314.03;;;9.76;97.74
49451;BME280;35336;48.400;10.886;2023-04-24T00:19:39;95293.84;;;9.68;97.81
49451;BME280;35336;48.400;10.886;2023-04-24T00:19:55;95342.97;;;9.98;97.86
49451;BME280;35336;48.400;10.886;2023-04-24T00:20:10;95345.41;;;9.99;97.69
49451;BME280;35336;48.400;10.886;2023-04-24T00:20:25;95333.59;;;9.89;97.36
49451;BME280;35336;48.400;10.886;2023-04-24T00:20:41;95313.03;;;9.77;97.47
49451;BME280;35336;48.400;10.886;2023-04-24T00:20:56;95331.16;;;9.87;97.36
49451;BME280;35336;48.400;10.886;2023-04-24T00:21:11;95301.59;;;9.70;97.44
49451;BME280;35336;48.400;10.886;2023-04-24T00:21:27;95340.94;;;9.93;97.46
49451;BME280;35336;48.400;10.886;2023-04-24T00:21:42;95341.16;;;9.92;97.36
49451;BME280;35336;48.400;10.886;2023-04-24T00:21:57;95326.25;;;9.84;97.33
49451;BME280;35336;48.400;10.886;2023-04-24T00:22:13;95317.25;;;9.85;97.45
49451;BME280;35336;48.400;10.886;2023-04-24T00:22:28;95346.22;;;10.00;97.08
49451;BME280;35336;48.400;10.886;2023-04-24T00:22:44;95341.31;;;9.97;97.28
49451;BME280;35336;48.400;10.886;2023-04-24T00:22:59;95304.88;;;9.72;97.11
49451;BME280;35336;48.400;10.886;2023-04-24T00:23:14;95328.91;;;9.84;96.93
49451;BME280;35336;48.400;10.886;2023-04-24T00:23:30;95330.38;;;9.87;96.54
49451;BME280;35336;48.400;10.886;2023-04-24T00:23:45;95339.31;;;9.92;96.90
49451;BME280;35336;48.400;10.886;2023-04-24T00:24:00;95339.53;;;9.91;96.46
49451;BME280;35336;48.400;10.886;2023-04-24T00:24:17;95334.84;;;9.86;96.51
49451;BME280;35336;48.400;10.886;2023-04-24T00:24:32;95301.44;;;9.65;96.69
49451;BME280;35336;48.400;10.886;2023-04-24T00:24:47;95330.19;;;9.81;96.74
49451;BME280;35336;48.400;10.886;2023-04-24T00:25:03;95325.69;;;9.82;96.67
49451;BME280;35336;48.400;10.886;2023-04-24T00:25:18;95317.72;;;9.75;96.47
49451;BME280;35336;48.400;10.886;2023-04-24T00:25:33;95308.94;;;9.75;96.59
49451;BME280;35336;48.400;10.886;2023-04-24T00:25:49;95331.38;;;9.85;96.58
49451;BME280;35336;48.400;10.886;2023-04-24T00:26:04;95330.38;;;9.87;96.84
49451;BME280;35336;48.400;10.886;2023-04-24T00:26:19;95322.19;;;9.81;96.83
49451;BME280;35336;48.400;10.886;2023-04-24T00:26:35;95332.41;;;9.84;96.86
49451;BME280;35336;48.400;10.886;2023-04-24T00:26:50;95328.91;;;9.84;96.78
49451;BME280;35336;48.400;10.886;2023-04-24T00:27:05;95328.91;;;9.84;96.87
49451;BME280;35336;48.400;10.886;2023-04-24T00:27:20;95335.50;;;9.81;96.84
49451;BME280;35336;48.400;10.886;2023-04-24T00:27:36;95327.34;;;9.76;97.14
49451;BME280;35336;48.400;10.886;2023-04-24T00:27:51;95316.72;;;9.76;96.70
49451;BME280;35336;48.400;10.886;2023-04-24T00:28:06;95327.09;;;9.84;96.78
49451;BME280;35336;48.400;10.886;2023-04-24T00:28:22;95314.03;;;9.76;97.13
49451;BME280;35336;48.400;10.886;2023-04-24T00:28:37;95325.69;;;9.82;96.71
49451;BME280;35336;48.400;10.886;2023-04-24T00:28:52;95326.50;;;9.82;96.74
49451;BME280;35336;48.400;10.886;2023-04-24T00:29:07;95316.09;;;9.74;97.01
49451;BME280;35336;48.400;10.886;2023-04-24T00:29:23;95320.63;;;9.74;96.95
49451;BME280;35336;48.400;10.886;2023-04-24T00:29:38;95331.59;;;9.84;97.01
49451;BME280;35336;48.400;10.886;2023-04-24T00:29:53;95327.31;;;9.83;97.20
49451;BME280;35336;48.400;10.886;2023-04-24T00:30:09;95315.31;;;9.74;97.04
49451;BME280;35336;48.400;10.886;2023-04-24T00:30:24;95312.41;;;9.75;97.25
49451;BME280;35336;48.400;10.886;2023-04-24T00:30:40;95314.03;;;9.76;96.77
49451;BME280;35336;48.400;10.886;2023-04-24T00:30:55;95312.78;;;9.79;96.50
49451;BME280;35336;48.400;10.886;2023-04-24T00:31:10;95326.06;;;9.85;96.54
49451;BME280;35336;48.400;10.886;2023-04-24T00:31:26;95334.63;;;9.88;96.50
49451;BME280;35336;48.400;10.886;2023-04-24T00:31:41;95293.09;;;9.61;96.58
49451;BME280;35336;48.400;10.886;2023-04-24T00:31:56;95316.09;;;9.74;96.32
49451;BME280;35336;48.400;10.886;2023-04-24T00:32:12;95329.38;;;9.81;96.74
49451;BME280;35336;48.400;10.886;2023-04-24T00:32:27;95335.09;;;9.84;96.47
49451;BME280;35336;48.400;10.886;2023-04-24T00:32:43;95313.44;;;9.74;97.05
49451;BME280;35336;48.400;10.886;2023-04-24T00:32:58;95314.28;;;9.75;96.87
49451;BME280;35336;48.400;10.886;2023-04-24T00:33:13;95298.59;;;9.60;96.50
49451;BME280;35336;48.400;10.886;2023-04-24T00:33:29;95312.63;;;9.74;96.51
49451;BME280;35336;48.400;10.886;2023-04-24T00:33:44;95329.16;;;9.82;96.34
49451;BME280;35336;48.400;10.886;2023-04-24T00:33:59;95332.84;;;9.81;96.77
49451;BME280;35336;48.400;10.886;2023-04-24T00:34:15;95296.97;;;9.59;96.61
49451;BME280;35336;48.400;10.886;2023-04-24T00:34:30;95326.50;;;9.82;96.36
49451;BME280;35336;48.400;10.886;2023-04-24T00:34:45;95332.84;;;9.81;96.47
49451;BME280;35336;48.400;10.886;2023-04-24T00:35:01;95319.00;;;9.73;96.26
49451;BME280;35336;48.400;10.886;2023-04-24T00:35:16;95322.44;;;9.73;96.33
49451;BME280;35336;48.400;10.886;2023-04-24T00:35:31;95322.63;;;9.78;96.19
49451;BME280;35336;48.400;10.886;2023-04-24T00:35:47;95316.09;;;9.74;96.16
49451;BME280;35336;48.400;10.886;2023-04-24T00:36:02;95329.59;;;9.79;96.22
49451;BME280;35336;48.400;10.886;2023-04-24T00:36:17;95308.75;;;9.69;96.20
49451;BME280;35336;48.400;10.886;2023-04-24T00:36:33;95316.56;;;9.71;96.73
49451;BME280;35336;48.400;10.886;2023-04-24T00:36:48;95334.69;;;9.81;96.86
49451;BME280;35336;48.400;10.886;2023-04-24T00:37:03;95311.66;;;9.68;96.62
49451;BME280;35336;48.400;10.886;2023-04-24T00:37:19;95324.69;;;9.76;96.51
49451;BME280;35336;48.400;10.886;2023-04-24T00:37:34;95316.31;;;9.73;96.39
49451;BME280;35336;48.400;10.886;2023-04-24T00:37:49;95318.75;;;9.74;96.50
49451;BME280;35336;48.400;10.886;2023-04-24T00:38:05;95334.47;;;9.82;96.21
49451;BME280;35336;48.400;10.886;2023-04-24T00:38:20;95308.75;;;9.69;96.02
49451;BME280;35336;48.400;10.886;2023-04-24T00:38:35;95319.63;;;9.68;96.03
49451;BME280;35336;48.400;10.886;2023-04-24T00:38:50;95299.44;;;9.60;95.80
49451;BME280;35336;48.400;10.886;2023-04-24T00:39:06;95314.91;;;9.70;95.80
49451;BME280;35336;48.400;10.886;2023-04-24T00:39:21;95322.44;;;9.73;95.95
49451;BME280;35336;48.400;10.886;2023-04-24T00:39:37;95311.66;;;9.68;96.06
49451;BME280;35336;48.400;10.886;2023-04-24T00:39:52;95325.56;;;9.70;95.99
49451;BME280;35336;48.400;10.886;2023-04-24T00:40:08;95312.09;;;9.65;96.02
49451;BME280;35336;48.400;10.886;2023-04-24T00:40:23;95337.41;;;9.74;95.88
49451;BME280;35336;48.400;10.886;2023-04-24T00:40:38;95288.88;;;9.47;95.89
49451;BME280;35336;48.400;10.886;2023-04-24T00:40:54;95316.56;;;9.71;95.97
49451;BME280;35336;48.400;10.886;2023-04-24T00:41:09;95291.72;;;9.52;95.82
49451;BME280;35336;48.400;10.886;2023-04-24T00:41:25;95320.66;;;9.67;95.91
49451;BME280;35336;48.400;10.886;2023-04-24T00:41:40;95326.59;;;9.69;96.08
49451;BME280;35336;48.400;10.886;2023-04-24T00:41:56;95315.97;;;9.62;95.97
49451;BME280;35336;48.400;10.886;2023-04-24T00:42:11;95333.09;;;9.73;96.32
49451;BME280;35336;48.400;10.886;2023-04-24T00:42:27;95333.09;;;9.73;96.15
49451;BME280;35336;48.400;10.886;2023-04-24T00:42:43;95331.28;;;9.74;96.44
49451;BME280;35336;48.400;10.886;2023-04-24T00:42:59;95325.13;;;9.73;96.95
49451;BME280;35336;48.400;10.886;2023-04-24T00:43:14;95331.88;;;9.76;97.01
49451;BME280;35336;48.400;10.886;2023-04-24T00:43:29;95311.50;;;9.63;96.82
49451;BME280;35336;48.400;10.886;2023-04-24T00:43:45;95330.03;;;9.76;96.63
49451;BME280;35336;48.400;10.886;2023-04-24T00:44:00;95314.53;;;9.66;96.66
49451;BME280;35336;48.400;10.886;2023-04-24T00:44:16;95308.38;;;9.66;96.90
49451;BME280;35336;48.400;10.886;2023-04-24T00:44:32;95319.84;;;9.66;96.71
49451;BME280;35336;48.400;10.886;2023-04-24T00:44:48;95325.13;;;9.73;96.49
49451;BME280;35336;48.400;10.886;2023-04-24T00:45:04;95321.44;;;9.74;96.39
49451;BME280;35336;48.400;10.886;2023-04-24T00:45:19;95308.59;;;9.64;96.40
49451;BME280;35336;48.400;10.886;2023-04-24T00:45:35;95322.63;;;9.78;96.51
49451;BME280;35336;48.400;10.886;2023-04-24T00:45:50;95325.50;;;9.77;96.60
49451;BME280;35336;48.400;10.886;2023-04-24T00:46:05;95292.09;;;9.56;96.61
49451;BME280;35336;48.400;10.886;2023-04-24T00:46:21;95282.31;;;9.49;96.74
49451;BME280;35336;48.400;10.886;2023-04-24T00:46:37;95312.47;;;9.68;96.59
49451;BME280;35336;48.400;10.886;2023-04-24T00:46:54;95322.63;;;9.78;96.14
49451;BME280;35336;48.400;10.886;2023-04-24T00:47:10;95326.72;;;9.81;96.26
49451;BME280;35336;48.400;10.886;2023-04-24T00:47:26;95315.69;;;9.77;95.72
49451;BME280;35336;48.400;10.886;2023-04-24T00:47:43;95288.56;;;9.62;95.35
49451;BME280;35336;48.400;10.886;2023-04-24T00:48:00;95284.09;;;9.56;95.48
49451;BME280;35336;48.400;10.886;2023-04-24T00:48:16;95329.16;;;9.82;95.13
49451;BME280;35336;48.400;10.886;2023-04-24T00:48:31;95317.31;;;9.78;95.20
49451;BME280;35336;48.400;10.886;2023-04-24T00:48:47;95295.75;;;9.61;95.02
49451;BME280;35336;48.400;10.886;2023-04-24T00:49:02;95321.63;;;9.79;94.96
49451;BME280;35336;48.400;10.886;2023-04-24T00:49:18;95308.56;;;9.71;95.30
49451;BME280;35336;48.400;10.886;2023-04-24T00:49:33;95303.81;;;9.73;95.19
49451;BME280;35336;48.400;10.886;2023-04-24T00:49:49;95316.94;;;9.75;94.88
49451;BME280;35336;48.400;10.886;2023-04-24T00:50:06;95304.69;;;9.67;95.02
49451;BME280;35336;48.400;10.886;2023-04-24T00:50:21;95305.53;;;9.67;94.96
49451;BME280;35336;48.400;10.886;2023-04-24T00:50:38;95303.50;;;9.63;94.58
49451;BME280;35336;48.400;10.886;2023-04-24T00:50:53;95316.56;;;9.71;94.87
49451;BME280;35336;48.400;10.886;2023-04-24T00:51:09;95295.53;;;9.63;95.20
49451;BME280;35336;48.400;10.886;2023-04-24T00:51:24;95317.72;;;9.75;95.04
49451;BME280;35336;48.400;10.886;2023-04-24T00:51:40;95278.63;;;9.50;95.34
49451;BME280;35336;48.400;10.886;2023-04-24T00:51:55;95322.03;;;9.76;95.26
49451;BME280;35336;48.400;10.886;2023-04-24T00:52:11;95302.25;;;9.65;95.17
49451;BME280;35336;48.400;10.886;2023-04-24T00:52:26;95303.50;;;9.63;95.28
49451;BME280;35336;48.400;10.886;2023-04-24T00:52:41;95305.13;;;9.64;95.25
49451;BME280;35336;48.400;10.886;2023-04-24T00:52:57;95319.00;;;9.73;95.68
49451;BME280;35336;48.400;10.886;2023-04-24T00:53:12;95323.50;;;9.72;95.44
49451;BME280;35336;48.400;10.886;2023-04-24T00:53:27;95305.94;;;9.64;95.80
49451;BME280;35336;48.400;10.886;2023-04-24T00:53:43;95319.22;;;9.71;95.41
49451;BME280;35336;48.400;10.886;2023-04-24T00:53:59;95312.47;;;9.68;95.60
49451;BME280;35336;48.400;10.886;2023-04-24T00:54:15;95313.88;;;9.71;95.61
49451;BME280;35336;48.400;10.886;2023-04-24T00:54:31;95287.78;;;9.54;95.02
49451;BME280;35336;48.400;10.886;2023-04-24T00:54:46;95298.59;;;9.60;94.97
49451;BME280;35336;48.400;10.886;2023-04-24T00:55:02;95318.19;;;9.72;95.22
49451;BME280;35336;48.400;10.886;2023-04-24T00:55:17;95322.25;;;9.75;95.00
49451;BME280;35336;48.400;10.886;2023-04-24T00:55:33;95322.25;;;9.75;94.76
49451;BME280;35336;48.400;10.886;2023-04-24T00:55:48;95300.00;;;9.62;95.46
49451;BME280;35336;48.400;10.886;2023-04-24T00:56:04;95316.09;;;9.74;95.00
49451;BME280;35336;48.400;10.886;2023-04-24T00:56:20;95318.75;;;9.74;94.97
49451;BME280;35336;48.400;10.886;2023-04-24T00:56:35;95286.53;;;9.57;94.96
49451;BME280;35336;48.400;10.886;2023-04-24T00:56:51;95299.81;;;9.64;94.77
49451;BME280;35336;48.400;10.886;2023-04-24T00:57:06;95317.72;;;9.75;94.76
49451;BME280;35336;48.400;10.886;2023-04-24T00:57:22;95314.84;;;9.77;94.86
49451;BME280;35336;48.400;10.886;2023-04-24T00:57:38;95292.84;;;9.63;94.79
49451;BME280;35336;48.400;10.886;2023-04-24T00:57:53;95314.84;;;9.77;94.69
49451;BME280;35336;48.400;10.886;2023-04-24T00:58:08;95323.06;;;9.75;94.56
49451;BME280;35336;48.400;10.886;2023-04-24T00:58:24;95283.88;;;9.57;94.76
49451;BME280;35336;48.400;10.886;2023-04-24T00:58:40;95317.13;;;9.73;94.52
49451;BME280;35336;48.400;10.886;2023-04-24T00:58:55;95308.38;;;9.66;95.11
49451;BME280;35336;48.400;10.886;2023-04-24T00:59:16;95297.72;;;9.66;95.23
49451;BME280;35336;48.400;10.886;2023-04-24T00:59:32;95284.34;;;9.54;94.85
49451;BME280;35336;48.400;10.886;2023-04-24T00:59:47;95304.88;;;9.72;95.02
49451;BME280;35336;48.400;10.886;2023-04-24T01:00:04;95312.84;;;9.72;95.12
49451;BME280;35336;48.400;10.886;2023-04-24T01:00:20;95272.69;;;9.48;94.89
49451;BME280;35336;48.400;10.886;2023-04-24T01:00:35;95302.91;;;9.61;94.93
49451;BME280;35336;48.400;10.886;2023-04-24T01:00:51;95292.25;;;9.61;95.10
49451;BME280;35336;48.400;10.886;2023-04-24T01:01:08;95304.69;;;9.67;95.42
49451;BME280;35336;48.400;10.886;2023-04-24T01:01:24;95285.56;;;9.51;95.51
49451;BME280;35336;48.400;10.886;2023-04-24T01:01:39;95295.16;;;9.52;95.46
49451;BME280;35336;48.400;10.886;2023-04-24T01:01:55;95300.84;;;9.63;95.49
49451;BME280;35336;48.400;10.886;2023-04-24T01:02:11;95315.72;;;9.70;95.54
49451;BME280;35336;48.400;10.886;2023-04-24T01:02:27;95316.06;;;9.81;95.47
49451;BME280;35336;48.400;10.886;2023-04-24T01:02:44;95317.09;;;9.80;95.62
49451;BME280;35336;48.400;10.886;2023-04-24T01:03:01;95315.03;;;9.82;94.97
49451;BME280;35336;48.400;10.886;2023-04-24T01:03:21;95298.50;;;9.73;94.92
49451;BME280;35336;48.400;10.886;2023-04-24T01:03:37;95318.72;;;9.81;94.48
49451;BME280;35336;48.400;10.886;2023-04-24T01:03:53;95303.81;;;9.73;94.26
49451;BME280;35336;48.400;10.886;2023-04-24T01:04:11;95318.94;;;9.79;94.61
49451;BME280;35336;48.400;10.886;2023-04-24T01:04:27;95317.31;;;9.78;94.44
49451;BME280;35336;48.400;10.886;2023-04-24T01:04:44;95315.69;;;9.77;94.38
49451;BME280;35336;48.400;10.886;2023-04-24T01:05:01;95309.38;;;9.72;94.47
49451;BME280;35336;48.400;10.886;2023-04-24T01:05:16;95280.44;;;9.50;94.03
49451;BME280;35336;48.400;10.886;2023-04-24T01:05:32;95308.94;;;9.75;94.43
49451;BME280;35336;48.400;10.886;2023-04-24T01:05:49;95316.72;;;9.76;94.47
49451;BME280;35336;48.400;10.886;2023-04-24T01:06:05;95298.34;;;9.68;94.48
49451;BME280;35336;48.400;10.886;2023-04-24T01:06:20;95302.63;;;9.69;94.54
49451;BME280;35336;48.400;10.886;2023-04-24T01:06:39;95316.94;;;9.75;94.50
49451;BME280;35336;48.400;10.886;2023-04-24T01:06:55;95307.53;;;9.72;93.92
49451;BME280;35336;48.400;10.886;2023-04-24T01:07:10;95283.50;;;9.53;94.23
49451;BME280;35336;48.400;10.886;2023-04-24T01:07:26;95305.91;;;9.71;94.13
49451;BME280;35336;48.400;10.886;2023-04-24T01:07:44;95287.56;;;9.56;94.57
49451;BME280;35336;48.400;10.886;2023-04-24T01:08:01;95289.59;;;9.61;94.49
49451;BME280;35336;48.400;10.886;2023-04-24T01:08:16;95304.66;;;9.74;94.12
49451;BME280;35336;48.400;10.886;2023-04-24T01:08:32;95287.94;;;9.60;94.04
49451;BME280;35336;48.400;10.886;2023-04-24T01:08:49;95296.13;;;9.65;94.03
49451;BME280;35336;48.400;10.886;2023-04-24T01:09:05;95286.94;;;9.61;94.18
49451;BME280;35336;48.400;10.886;2023-04-24T01:09:21;95302.66;;;9.62;94.36
49451;BME280;35336;48.400;10.886;2023-04-24T01:09:40;95308.75;;;9.69;94.27
49451;BME280;35336;48.400;10.886;2023-04-24T01:09:56;95311.66;;;9.68;94.13
49451;BME280;35336;48.400;10.886;2023-04-24T01:10:15;95302.03;;;9.67;94.40
49451;BME280;35336;48.400;10.886;2023-04-24T01:10:33;95311.66;;;9.68;94.23
49451;BME280;35336;48.400;10.886;2023-04-24T01:10:49;95294.53;;;9.57;94.55
49451;BME280;35336;48.400;10.886;2023-04-24T01:11:06;95298.59;;;9.60;94.19
49451;BME280;35336;48.400;10.886;2023-04-24T01:11:22;95315.34;;;9.67;94.67
49451;BME280;35336;48.400;10.886;2023-04-24T01:11:37;95298.22;;;9.56;94.60
49451;BME280;35336;48.400;10.886;2023-04-24T01:11:52;95291.88;;;9.57;94.32
49451;BME280;35336;48.400;10.886;2023-04-24T01:12:08;95314.53;;;9.66;94.20
49451;BME280;35336;48.400;10.886;2023-04-24T01:12:24;95297.41;;;9.56;94.12
49451;BME280;35336;48.400;10.886;2023-04-24T01:12:39;95312.91;;;9.65;94.31
49451;BME280;35336;48.400;10.886;2023-04-24T01:12:55;95301.72;;;9.57;94.60
49451;BME280;35336;48.400;10.886;2023-04-24T01:13:10;95298.44;;;9.54;94.32
49451;BME280;35336;48.400;10.886;2023-04-24T01:13:26;95310.47;;;9.64;94.53
49451;BME280;35336;48.400;10.886;2023-04-24T01:13:42;95294.59;;;9.50;94.49
49451;BME280;35336;48.400;10.886;2023-04-24T01:13:57;95296.19;;;9.51;94.18
49451;BME280;35336;48.400;10.886;2023-04-24T01:14:13;95317.59;;;9.63;94.48
49451;BME280;35336;48.400;10.886;2023-04-24T01:14:28;95313.13;;;9.64;94.52
49451;BME280;35336;48.400;10.886;2023-04-24T01:14:44;95285.00;;;9.43;94.92
49451;BME280;35336;48.400;10.886;2023-04-24T01:14:59;95312.72;;;9.60;94.74
49451;BME280;35336;48.400;10.886;2023-04-24T01:15:14;95292.50;;;9.52;94.38
49451;BME280;35336;48.400;10.886;2023-04-24T01:15:30;95273.38;;;9.37;94.75
49451;BME280;35336;48.400;10.886;2023-04-24T01:15:45;95291.31;;;9.48;94.77
49451;BME280;35336;48.400;10.886;2023-04-24T01:16:01;95291.09;;;9.50;94.40
49451;BME280;35336;48.400;10.886;2023-04-24T01:16:17;95305.63;;;9.54;94.79
49451;BME280;35336;48.400;10.886;2023-04-24T01:16:32;95301.97;;;9.48;95.09
49451;BME280;35336;48.400;10.886;2023-04-24T01:16:47;95275.44;;;9.35;94.47
49451;BME280;35336;48.400;10.886;2023-04-24T01:17:03;95294.59;;;9.50;94.92
49451;BME280;35336;48.400;10.886;2023-04-24T01:17:18;95298.69;;;9.46;94.63
49451;BME280;35336;48.400;10.886;2023-04-24T01:17:33;95309.31;;;9.53;94.73
49451;BME280;35336;48.400;10.886;2023-04-24T01:17:49;95313.38;;;9.56;94.62
49451;BME280;35336;48.400;10.886;2023-04-24T01:18:04;95306.00;;;9.58;94.74
49451;BME280;35336;48.400;10.886;2023-04-24T01:18:19;95299.09;;;9.50;94.56
49451;BME280;35336;48.400;10.886;2023-04-24T01:18:35;95298.66;;;9.53;94.06
49451;BME280;35336;48.400;10.886;2023-04-24T01:18:50;95301.47;;;9.58;94.24
49451;BME280;35336;48.400;10.886;2023-04-24T01:19:06;95288.66;;;9.48;94.27
49451;BME280;35336;48.400;10.886;2023-04-24T01:19:22;95294.59;;;9.50;94.58
49451;BME280;35336;48.400;10.886;2023-04-24T01:19:38;95294.59;;;9.50;94.22
49451;BME280;35336;48.400;10.886;2023-04-24T01:19:53;95292.97;;;9.49;94.26
49451;BME280;35336;48.400;10.886;2023-04-24T01:20:09;95283.75;;;9.45;93.99
49451;BME280;35336;48.400;10.886;2023-04-24T01:20:25;95304.16;;;9.58;94.53
49451;BME280;35336;48.400;10.886;2023-04-24T01:20:41;95288.66;;;9.48;94.79
49451;BME280;35336;48.400;10.886;2023-04-24T01:20:58;95279.03;;;9.47;94.28
49451;BME280;35336;48.400;10.886;2023-04-24T01:21:15;95260.34;;;9.29;94.40
49451;BME280;35336;48.400;10.886;2023-04-24T01:21:35;95306.00;;;9.58;94.48
49451;BME280;35336;48.400;10.886;2023-04-24T01:21:53;95303.13;;;9.59;94.37
49451;BME280;35336;48.400;10.886;2023-04-24T01:22:11;95281.09;;;9.45;94.45
49451;BME280;35336;48.400;10.886;2023-04-24T01:22:26;95279.66;;;9.49;94.26
49451;BME280;35336;48.400;10.886;2023-04-24T01:22:42;95292.31;;;9.54;94.59